Time;durP1;ratioP1;P1;durP2;ratioP2;P2;SDS_P1;SDS_P2;PMS_P1;PMS_P2;Temp;Humidity;BMP_temperature;BMP_pressure;BME280_temperature;BME280_humidity;BME280_pressure;Samples;Min_cycle;Max_cycle;Signal;HPM_P1;HPM_P2
2021/04/21 00:01:55;;;;;;;3.55;2.80;;;20.70;44.00;;;;;;5092066;28;20059;-45
2021/04/21 00:04:22;;;;;;;3.58;2.78;;;20.70;44.00;;;;;;5093234;28;20058;-42
2021/04/21 00:06:48;;;;;;;3.80;3.10;;;20.70;44.00;;;;;;5092174;28;20489;-44
2021/04/21 00:09:17;;;;;;;3.67;2.95;;;20.70;44.00;;;;;;5092808;28;20080;-41
2021/04/21 00:11:44;;;;;;;3.38;2.67;;;20.70;44.00;;;;;;5091536;28;20032;-40
2021/04/21 00:14:16;;;;;;;3.78;3.03;;;20.70;44.00;;;;;;5091765;28;20031;-40
2021/04/21 00:16:48;;;;;;;3.97;3.05;;;20.70;43.90;;;;;;5091958;28;20084;-45
2021/04/21 00:19:18;;;;;;;3.85;2.63;;;20.70;43.90;;;;;;5086043;28;20441;-41
2021/04/21 00:21:46;;;;;;;3.85;3.22;;;20.70;43.90;;;;;;5090899;28;20043;-47
2021/04/21 00:24:12;;;;;;;4.25;3.20;;;20.70;43.90;;;;;;5092520;28;20035;-51
2021/04/21 00:26:39;;;;;;;4.28;3.10;;;20.70;43.90;;;;;;5091259;28;20059;-44
2021/04/21 00:29:08;;;;;;;3.67;2.67;;;20.70;43.90;;;;;;5093043;28;20421;-46
2021/04/21 00:31:34;;;;;;;3.53;2.67;;;20.70;43.90;;;;;;5092240;28;20400;-50
2021/04/21 00:34:02;;;;;;;2.92;2.60;;;20.70;43.90;;;;;;5092449;28;20024;-42
2021/04/21 00:36:32;;;;;;;4.18;2.80;;;20.70;43.90;;;;;;5092472;28;20035;-41
2021/04/21 00:38:59;;;;;;;4.18;2.85;;;20.70;43.80;;;;;;5091756;28;20028;-44
2021/04/21 00:41:25;;;;;;;4.72;2.97;;;20.70;43.80;;;;;;5091713;28;20035;-44
2021/04/21 00:44:28;;;;;;;3.75;2.70;;;20.70;43.80;;;;;;5091298;28;20032;-46
2021/04/21 00:47:03;;;;;;;3.60;3.13;;;20.70;43.80;;;;;;5088055;28;20270;-48
2021/04/21 00:50:17;;;;;;;4.03;2.65;;;20.70;43.80;;;;;;5085387;28;20020;-39
2021/04/21 00:52:46;;;;;;;4.35;3.13;;;20.70;43.80;;;;;;5032097;28;20061;-44
2021/04/21 00:55:33;;;;;;;5.07;3.35;;;20.70;43.80;;;;;;5091829;28;20071;-43
2021/04/21 00:58:11;;;;;;;3.70;3.03;;;20.70;43.80;;;;;;5091158;28;20028;-43
2021/04/21 01:00:43;;;;;;;3.95;2.72;;;20.70;43.70;;;;;;5092224;28;20024;-45
2021/04/21 01:03:19;;;;;;;4.93;2.90;;;20.70;43.80;;;;;;5090353;28;20051;-41
2021/04/21 01:05:53;;;;;;;4.22;2.75;;;20.70;43.80;;;;;;5091379;28;20138;-43
2021/04/21 01:08:26;;;;;;;3.83;2.70;;;20.70;43.70;;;;;;5091702;28;20016;-43
2021/04/21 01:11:20;;;;;;;3.03;2.60;;;20.70;43.70;;;;;;5090581;28;20431;-44
2021/04/21 01:13:50;;;;;;;3.58;2.80;;;20.70;43.70;;;;;;5089822;28;20438;-44
2021/04/21 01:16:20;;;;;;;3.20;2.67;;;20.70;43.70;;;;;;5091683;28;20032;-43
2021/04/21 01:18:48;;;;;;;3.38;2.90;;;20.70;43.60;;;;;;5090914;28;20036;-45
2021/04/21 01:21:35;;;;;;;3.95;3.10;;;20.70;43.60;;;;;;5091690;28;20032;-41
2021/04/21 01:24:26;;;;;;;4.05;3.20;;;20.70;43.60;;;;;;5091763;28;20027;-46
2021/04/21 01:27:10;;;;;;;3.10;2.65;;;20.70;43.60;;;;;;5090380;28;20093;-43
2021/04/21 01:29:56;;;;;;;4.15;3.17;;;20.70;43.70;;;;;;5090986;28;20106;-54
2021/04/21 01:32:28;;;;;;;4.38;3.20;;;20.70;43.60;;;;;;5091571;28;20040;-47
2021/04/21 01:34:55;;;;;;;3.95;2.75;;;20.70;43.60;;;;;;5090204;28;20020;-48
2021/04/21 01:37:28;;;;;;;3.83;2.75;;;20.70;43.60;;;;;;5089926;28;20058;-44
2021/04/21 01:39:57;;;;;;;3.33;2.72;;;20.70;43.60;;;;;;5090609;28;20042;-44
2021/04/21 01:42:28;;;;;;;2.90;2.60;;;20.70;43.60;;;;;;5091394;28;20038;-42
2021/04/21 01:44:57;;;;;;;4.00;2.92;;;20.70;43.60;;;;;;5082881;28;20198;-41
2021/04/21 01:47:23;;;;;;;4.07;3.40;;;20.70;43.60;;;;;;5091244;28;20089;-47
2021/04/21 01:50:15;;;;;;;3.78;3.28;;;20.70;43.50;;;;;;5090586;28;20098;-44
2021/04/21 01:52:49;;;;;;;4.32;3.42;;;20.70;43.50;;;;;;5086907;28;20079;-43
2021/04/21 01:55:20;;;;;;;3.85;3.00;;;20.70;43.50;;;;;;5089723;28;20035;-41
2021/04/21 01:57:57;;;;;;;3.60;3.03;;;20.70;43.50;;;;;;5090124;28;20028;-46
2021/04/21 02:01:04;;;;;;;3.70;2.83;;;20.70;43.50;;;;;;5095526;28;20446;-45
2021/04/21 02:03:44;;;;;;;3.55;2.42;;;20.70;43.50;;;;;;5091298;28;20048;-44
2021/04/21 02:06:13;;;;;;;4.00;2.78;;;20.70;43.50;;;;;;5095422;28;20028;-43
2021/04/21 02:08:57;;;;;;;3.72;2.90;;;20.70;43.50;;;;;;5094332;28;20033;-44
2021/04/21 02:11:25;;;;;;;3.60;2.85;;;20.70;43.50;;;;;;5095060;28;20480;-41
2021/04/21 02:14:09;;;;;;;4.43;3.05;;;20.70;43.50;;;;;;5094264;28;20028;-43
2021/04/21 02:17:13;;;;;;;4.57;3.60;;;20.70;43.40;;;;;;5094733;28;20108;-51
2021/04/21 02:20:04;;;;;;;5.18;3.15;;;20.70;43.40;;;;;;5093743;28;20381;-50
2021/04/21 02:22:35;;;;;;;4.53;3.17;;;20.70;43.50;;;;;;5091433;28;20423;-42
2021/04/21 02:25:07;;;;;;;4.32;3.10;;;20.70;43.40;;;;;;5094535;28;20023;-42
2021/04/21 02:27:59;;;;;;;2.88;2.55;;;20.70;43.40;;;;;;5094955;28;20050;-44
2021/04/21 02:30:40;;;;;;;4.25;2.80;;;20.70;43.40;;;;;;5091784;28;20048;-44
2021/04/21 02:33:09;;;;;;;4.05;3.15;;;20.70;43.40;;;;;;5094266;28;20374;-50
2021/04/21 02:35:46;;;;;;;4.75;3.10;;;20.70;43.40;;;;;;5095225;28;20024;-39
2021/04/21 02:38:58;;;;;;;3.75;3.15;;;20.70;43.40;;;;;;5095116;28;20024;-42
2021/04/21 02:41:28;;;;;;;4.40;2.95;;;20.70;43.40;;;;;;5063091;28;20040;-47
2021/04/21 02:44:12;;;;;;;4.50;3.20;;;20.70;43.40;;;;;;5093383;28;20036;-43
2021/04/21 02:47:03;;;;;;;4.13;3.35;;;20.70;43.40;;;;;;5094327;28;20089;-51
2021/04/21 02:49:47;;;;;;;4.38;3.20;;;20.70;43.40;;;;;;5091765;28;20070;-45
2021/04/21 02:52:37;;;;;;;3.38;3.00;;;20.70;43.30;;;;;;5093516;28;20043;-41
2021/04/21 02:55:14;;;;;;;4.45;3.05;;;20.70;43.30;;;;;;5093348;28;20032;-46
2021/04/21 02:57:58;;;;;;;3.88;2.92;;;20.70;43.30;;;;;;5093484;28;20043;-47
2021/04/21 03:00:28;;;;;;;4.47;3.17;;;20.70;43.30;;;;;;5094205;28;20035;-43
2021/04/21 03:03:15;;;;;;;3.50;2.72;;;20.70;43.30;;;;;;5093279;28;20537;-42
2021/04/21 03:05:50;;;;;;;3.80;3.00;;;20.70;43.30;;;;;;5093251;28;20035;-52
2021/04/21 03:08:25;;;;;;;4.65;3.63;;;20.70;43.30;;;;;;5093655;28;20488;-42
2021/04/21 03:11:03;;;;;;;4.22;3.45;;;20.70;43.20;;;;;;5092272;28;20077;-42
2021/04/21 03:13:34;;;;;;;4.05;3.15;;;20.70;43.30;;;;;;5094136;28;20028;-45
2021/04/21 03:16:06;;;;;;;4.07;3.28;;;20.80;43.30;;;;;;5092846;28;20081;-47
2021/04/21 03:18:33;;;;;;;4.30;3.15;;;20.70;43.20;;;;;;5094061;28;20104;-47
2021/04/21 03:21:00;;;;;;;3.45;2.92;;;20.70;43.20;;;;;;5092886;28;20511;-43
2021/04/21 03:23:28;;;;;;;4.28;3.00;;;20.70;43.20;;;;;;5094073;28;20016;-41
2021/04/21 03:25:57;;;;;;;4.35;3.25;;;20.70;43.20;;;;;;5093190;28;20072;-46
2021/04/21 03:28:25;;;;;;;3.85;3.17;;;20.70;43.20;;;;;;5085715;28;20020;-42
2021/04/21 03:30:56;;;;;;;4.00;2.67;;;20.70;43.30;;;;;;5092615;28;20373;-39
2021/04/21 03:33:49;;;;;;;4.55;3.40;;;20.70;43.30;;;;;;5085725;28;20501;-45
2021/04/21 03:36:18;;;;;;;3.90;3.45;;;20.80;43.30;;;;;;5093244;28;20020;-44
2021/04/21 03:38:46;;;;;;;4.57;3.45;;;20.80;43.30;;;;;;5092813;28;20024;-45
2021/04/21 03:41:12;;;;;;;5.35;3.17;;;20.80;43.30;;;;;;5093829;28;20032;-43
2021/04/21 03:43:42;;;;;;;5.18;3.83;;;20.80;43.30;;;;;;5092866;28;20081;-50
2021/04/21 03:46:10;;;;;;;3.70;2.65;;;20.70;43.20;;;;;;5093417;28;20025;-46
2021/04/21 03:48:37;;;;;;;4.22;3.50;;;20.80;43.30;;;;;;5093251;28;20107;-39
2021/04/21 03:51:05;;;;;;;4.20;2.67;;;20.70;43.20;;;;;;5092054;28;20059;-41
2021/04/21 03:53:34;;;;;;;4.03;3.00;;;20.80;43.30;;;;;;5093320;28;20032;-44
2021/04/21 03:56:01;;;;;;;3.95;3.22;;;20.80;43.30;;;;;;5092223;28;20040;-42
2021/04/21 03:58:30;;;;;;;3.45;2.60;;;20.80;43.30;;;;;;5092985;28;20475;-45
2021/04/21 04:01:18;;;;;;;5.70;3.40;;;20.70;43.20;;;;;;5092379;28;20035;-43
2021/04/21 04:03:59;;;;;;;3.65;2.95;;;20.70;43.10;;;;;;5085601;28;20051;-44
2021/04/21 04:06:33;;;;;;;4.25;3.30;;;20.80;43.20;;;;;;5092477;28;20530;-41
2021/04/21 04:09:05;;;;;;;4.65;3.60;;;20.70;43.10;;;;;;5092000;28;20131;-41
2021/04/21 04:11:37;;;;;;;;;;;20.70;43.10;;;;;;5093331;28;20032;-45
2021/04/21 04:14:14;;;;;;;5.15;3.25;;;20.70;43.40;;;;;;5091795;28;19908;-40
2021/04/21 04:16:42;;;;;;;4.93;3.22;;;20.70;43.20;;;;;;5084767;28;20027;-50
2021/04/21 04:19:11;;;;;;;4.80;3.22;;;20.80;43.20;;;;;;5093012;28;20346;-43
2021/04/21 04:21:39;;;;;;;5.45;3.53;;;20.80;43.20;;;;;;5091720;28;20034;-44
2021/04/21 04:24:10;;;;;;;4.38;3.13;;;20.80;43.10;;;;;;5091970;28;20028;-42
2021/04/21 04:26:40;;;;;;;3.67;3.15;;;20.80;43.20;;;;;;5090974;28;20460;-43
2021/04/21 04:29:05;;;;;;;5.85;3.35;;;20.80;43.10;;;;;;5092264;28;20050;-40
2021/04/21 04:31:35;;;;;;;3.60;2.92;;;20.80;43.10;;;;;;5091663;28;20097;-48
2021/04/21 04:34:04;;;;;;;4.28;3.15;;;20.80;43.20;;;;;;5091372;28;20479;-45
2021/04/21 04:36:32;;;;;;;3.47;2.92;;;20.80;43.30;;;;;;5092148;28;20104;-46
2021/04/21 04:38:59;;;;;;;7.30;4.65;;;20.80;43.20;;;;;;5091627;28;20048;-43
2021/04/21 04:41:27;;;;;;;13.48;8.57;;;20.70;42.80;;;;;;5091977;28;20392;-43
2021/04/21 04:43:56;;;;;;;12.60;9.45;;;20.40;37.50;;;;;;5076342;28;20036;-41
2021/04/21 04:46:27;;;;;;;15.68;10.55;;;20.10;37.10;;;;;;5091323;28;20449;-43
2021/04/21 04:49:05;;;;;;;16.63;10.18;;;19.80;37.10;;;;;;5083367;28;20054;-43
2021/04/21 04:51:36;;;;;;;18.63;10.73;;;19.00;38.40;;;;;;5091299;28;20478;-44
2021/04/21 04:54:03;;;;;;;19.45;11.30;;;18.60;38.90;;;;;;5091259;28;20205;-41
2021/04/21 04:56:33;;;;;;;16.92;12.35;;;18.40;39.10;;;;;;5092158;28;20039;-44
2021/04/21 04:59:03;;;;;;;18.05;11.52;;;18.20;39.80;;;;;;5091008;28;20381;-44
2021/04/21 05:01:46;;;;;;;15.13;10.73;;;18.20;39.90;;;;;;5085689;28;20104;-42
2021/04/21 05:04:14;;;;;;;14.68;9.48;;;18.30;40.30;;;;;;5091667;28;20051;-44
2021/04/21 05:06:56;;;;;;;16.85;8.45;;;18.90;39.90;;;;;;5091937;28;20027;-63
2021/04/21 05:09:24;;;;;;;11.52;7.95;;;19.40;39.80;;;;;;5091740;28;20504;-63
2021/04/21 05:11:52;;;;;;;14.15;7.20;;;19.70;39.50;;;;;;5090970;28;20119;-62
2021/04/21 05:14:23;;;;;;;10.02;7.45;;;19.90;39.50;;;;;;5091346;28;20049;-59
2021/04/21 05:16:55;;;;;;;10.68;6.88;;;20.10;39.40;;;;;;5091165;28;20023;-61
2021/04/21 05:19:43;;;;;;;8.02;6.28;;;20.20;39.30;;;;;;5091765;28;20020;-59
2021/04/21 05:22:35;;;;;;;10.18;6.13;;;20.30;39.40;;;;;;5089948;28;20036;-60
2021/04/21 05:25:21;;;;;;;9.75;5.68;;;20.30;39.50;;;;;;5081009;28;20044;-62
2021/04/21 05:28:07;;;;;;;7.90;5.50;;;20.40;39.50;;;;;;5044675;28;20048;-62
2021/04/21 05:30:51;;;;;;;8.60;4.97;;;20.50;39.80;;;;;;5090859;28;20040;-60
2021/04/21 05:33:34;;;;;;;12.75;5.47;;;20.50;40.00;;;;;;5091124;28;20024;-56
2021/04/21 05:36:24;;;;;;;10.07;4.45;;;20.70;40.40;;;;;;5090598;28;20107;-60
2021/04/21 05:39:08;;;;;;;12.77;5.28;;;20.70;40.90;;;;;;5090333;28;20345;-64
2021/04/21 05:42:28;;;;;;;10.93;4.47;;;20.70;42.00;;;;;;5091002;28;20066;-54
2021/04/21 05:45:25;;;;;;;11.10;4.90;;;20.70;42.00;;;;;;5008384;28;20034;-64
2021/04/21 05:48:09;;;;;;;13.43;4.50;;;20.70;43.10;;;;;;5085191;28;20076;-56
2021/04/21 05:50:50;;;;;;;7.47;4.30;;;20.70;43.70;;;;;;5091009;28;20127;-54
2021/04/21 05:53:37;;;;;;;19.95;5.15;;;20.70;43.70;;;;;;5091176;28;20024;-62
2021/04/21 05:56:36;;;;;;;17.70;4.60;;;20.70;43.40;;;;;;5090477;28;20032;-62
2021/04/21 05:59:39;;;;;;;11.27;4.60;;;20.80;43.70;;;;;;5090752;28;20027;-61
2021/04/21 06:02:05;;;;;;;23.80;5.60;;;20.80;44.40;;;;;;5090516;28;20028;-59
2021/04/21 06:04:31;;;;;;;11.95;5.63;;;20.70;44.60;;;;;;5091159;28;20048;-52
2021/04/21 06:07:15;;;;;;;17.67;10.82;;;20.70;44.80;;;;;;5090013;28;20032;-63
2021/04/21 06:09:41;;;;;;;16.17;11.63;;;20.00;39.50;;;;;;5090364;28;20066;-56
2021/04/21 06:12:11;;;;;;;17.63;11.40;;;18.50;41.80;;;;;;5090253;28;20512;-60
2021/04/21 06:14:39;;;;;;;18.48;12.10;;;18.00;42.00;;;;;;5084531;28;20028;-60
2021/04/21 06:17:06;;;;;;;19.17;11.13;;;17.50;42.80;;;;;;5089298;28;20274;-51
2021/04/21 06:19:31;;;;;;;17.20;10.18;;;18.00;42.60;;;;;;5091001;28;20465;-59
2021/04/21 06:21:58;;;;;;;13.35;9.45;;;18.80;41.20;;;;;;5089572;28;20032;-60
2021/04/21 06:24:29;;;;;;;13.95;8.70;;;19.30;40.90;;;;;;5084430;28;20021;-54
2021/04/21 06:27:12;;;;;;;12.95;8.00;;;19.60;40.60;;;;;;5088203;28;20038;-64
2021/04/21 06:29:39;;;;;;;10.30;7.43;;;19.90;40.70;;;;;;5089474;28;20365;-57
2021/04/21 06:32:06;;;;;;;10.75;7.32;;;20.00;40.70;;;;;;5085944;28;20035;-60
2021/04/21 06:34:34;;;;;;;9.55;6.97;;;20.10;40.80;;;;;;5089927;28;20171;-60
2021/04/21 06:37:00;;;;;;;10.18;6.88;;;20.10;40.80;;;;;;5089818;28;20469;-61
2021/04/21 06:39:29;;;;;;;9.88;6.10;;;20.20;41.70;;;;;;5090791;28;20036;-59
2021/04/21 06:41:58;;;;;;;9.13;6.32;;;20.20;41.00;;;;;;5089328;28;20384;-59
2021/04/21 06:44:52;;;;;;;8.30;5.70;;;20.30;41.20;;;;;;5090358;28;20487;-61
2021/04/21 06:47:27;;;;;;;9.82;6.22;;;20.30;41.20;;;;;;5091709;28;20024;-61
2021/04/21 06:50:11;;;;;;;8.48;5.57;;;20.30;41.30;;;;;;5086221;28;20035;-65
2021/04/21 06:52:43;;;;;;;7.05;5.50;;;20.30;41.40;;;;;;5092379;28;20042;-62
2021/04/21 06:55:11;;;;;;;7.20;5.68;;;20.30;41.50;;;;;;5093024;28;20020;-61
2021/04/21 06:57:37;;;;;;;7.78;4.85;;;20.40;41.50;;;;;;5092714;28;20035;-59
2021/04/21 07:00:27;;;;;;;7.03;4.90;;;20.40;41.60;;;;;;5092928;28;20043;-62
2021/04/21 07:02:55;;;;;;;5.57;4.60;;;20.50;41.70;;;;;;5082330;28;20048;-61
2021/04/21 07:05:38;;;;;;;6.70;4.57;;;20.50;41.80;;;;;;5093713;28;20111;-59
2021/04/21 07:08:18;;;;;;;7.32;4.45;;;20.50;41.80;;;;;;5092318;28;20023;-61
2021/04/21 07:10:56;;;;;;;5.38;4.25;;;20.50;41.80;;;;;;5092458;28;20067;-62
2021/04/21 07:13:30;;;;;;;7.22;4.45;;;20.50;41.90;;;;;;5090514;28;20094;-62
2021/04/21 07:16:04;;;;;;;6.63;4.45;;;20.50;42.00;;;;;;5080014;28;20032;-60
2021/04/21 07:18:39;;;;;;;7.10;4.38;;;20.60;42.10;;;;;;5086519;28;20044;-60
2021/04/21 07:21:07;;;;;;;6.22;4.25;;;20.50;42.10;;;;;;5093270;28;20028;-61
2021/04/21 07:23:36;;;;;;;4.85;4.20;;;20.60;42.20;;;;;;5093248;28;20043;-60
2021/04/21 07:26:03;;;;;;;5.53;4.13;;;20.60;42.20;;;;;;5091381;28;20064;-61
2021/04/21 07:28:29;;;;;;;4.95;3.95;;;20.60;42.30;;;;;;5093487;28;20029;-60
2021/04/21 07:30:55;;;;;;;5.30;3.72;;;20.60;42.30;;;;;;5091566;28;20465;-59
2021/04/21 07:33:43;;;;;;;5.07;3.83;;;20.70;42.40;;;;;;5093060;28;20032;-60
2021/04/21 07:36:20;;;;;;;5.05;3.92;;;20.60;42.40;;;;;;5086904;28;20016;-61
2021/04/21 07:38:51;;;;;;;5.40;4.28;;;20.70;42.40;;;;;;5093256;28;20051;-61
2021/04/21 07:41:37;;;;;;;4.95;3.88;;;20.70;42.50;;;;;;5093329;28;20032;-61
2021/04/21 07:44:24;;;;;;;6.57;4.18;;;20.70;42.60;;;;;;5091783;28;20430;-61
2021/04/21 07:46:59;;;;;;;5.18;4.03;;;20.70;42.60;;;;;;5092713;28;20091;-64
2021/04/21 07:49:30;;;;;;;5.25;3.90;;;20.70;42.60;;;;;;5086301;28;20384;-61
2021/04/21 07:51:56;;;;;;;4.53;3.72;;;20.70;42.70;;;;;;5089834;28;20042;-63
2021/04/21 07:54:23;;;;;;;4.95;4.18;;;20.70;42.70;;;;;;5092320;28;20056;-61
2021/04/21 07:56:57;;;;;;;5.60;3.88;;;20.70;42.70;;;;;;5091935;28;20418;-64
2021/04/21 07:59:26;;;;;;;5.72;4.18;;;20.70;42.80;;;;;;5093327;28;20036;-60
2021/04/21 08:01:53;;;;;;;3.75;3.35;;;20.70;42.80;;;;;;5092941;28;20035;-64
2021/04/21 08:04:22;;;;;;;6.00;3.70;;;20.70;43.00;;;;;;5092816;28;20052;-60
2021/04/21 08:06:51;;;;;;;4.18;3.70;;;20.70;42.90;;;;;;5091368;28;20035;-61
2021/04/21 08:09:17;;;;;;;4.65;3.72;;;20.70;42.90;;;;;;5092313;28;20058;-62
2021/04/21 08:11:44;;;;;;;8.05;4.13;;;20.80;43.00;;;;;;5091557;28;20036;-60
2021/04/21 08:14:11;;;;;;;4.85;3.50;;;20.80;43.00;;;;;;5091630;28;20031;-61
2021/04/21 08:16:37;;;;;;;3.65;2.95;;;20.80;43.10;;;;;;5092419;28;20028;-61
2021/04/21 08:19:19;;;;;;;5.05;3.58;;;20.80;43.10;;;;;;5091695;28;20028;-58
2021/04/21 08:21:47;;;;;;;5.22;3.60;;;20.80;43.10;;;;;;5092492;28;20389;-60
2021/04/21 08:24:15;;;;;;;4.78;3.55;;;20.80;43.10;;;;;;5090545;28;20656;-60
2021/04/21 08:26:43;;;;;;;5.35;3.53;;;20.80;43.80;;;;;;5092146;28;20402;-59
2021/04/21 08:29:11;;;;;;;4.57;3.40;;;20.80;43.20;;;;;;5091481;28;20469;-62
2021/04/21 08:31:37;;;;;;;5.90;3.50;;;20.80;43.10;;;;;;5085475;28;20132;-60
2021/04/21 08:34:04;;;;;;;5.22;3.70;;;20.80;43.60;;;;;;5091314;28;20492;-63
2021/04/21 08:36:30;;;;;;;4.32;3.30;;;20.80;43.60;;;;;;5091569;28;20032;-61
2021/04/21 08:38:55;;;;;;;6.10;3.53;;;20.90;43.70;;;;;;5091120;28;20031;-64
2021/04/21 08:41:22;;;;;;;5.25;3.20;;;20.80;43.60;;;;;;5091710;28;20020;-59
2021/04/21 08:43:50;;;;;;;5.85;3.30;;;20.80;43.80;;;;;;5091806;28;20028;-62
2021/04/21 08:46:18;;;;;;;5.22;3.42;;;20.80;43.90;;;;;;5090604;28;20161;-58
2021/04/21 08:48:44;;;;;;;4.03;3.40;;;20.90;43.90;;;;;;5091556;28;20032;-61
2021/04/21 08:51:16;;;;;;;5.07;3.13;;;20.80;44.00;;;;;;5091307;28;20477;-58
2021/04/21 08:53:46;;;;;;;4.90;3.63;;;20.80;44.40;;;;;;5091873;28;20472;-61
2021/04/21 08:56:18;;;;;;;5.05;3.53;;;20.80;44.60;;;;;;5090530;28;20031;-61
2021/04/21 08:58:49;;;;;;;5.75;3.67;;;20.80;44.60;;;;;;5089900;28;20069;-62
2021/04/21 09:01:16;;;;;;;3.90;2.95;;;20.80;44.60;;;;;;5091240;28;20084;-56
2021/04/21 09:03:48;;;;;;;4.40;3.03;;;20.80;44.60;;;;;;5090802;28;20044;-58
2021/04/21 09:06:17;;;;;;;3.97;3.25;;;20.80;44.60;;;;;;5091069;28;20572;-58
2021/04/21 09:08:48;;;;;;;3.40;3.00;;;20.80;44.50;;;;;;5090042;28;20070;-59
2021/04/21 09:11:14;;;;;;;4.50;3.17;;;20.80;44.50;;;;;;5091032;28;20068;-59
2021/04/21 09:13:40;;;;;;;4.03;2.72;;;20.80;44.50;;;;;;5090862;28;20032;-60
2021/04/21 09:16:07;;;;;;;5.07;3.13;;;20.80;44.50;;;;;;5089968;28;20354;-60
2021/04/21 09:18:34;;;;;;;4.28;3.42;;;20.80;44.40;;;;;;5089965;28;20495;-59
2021/04/21 09:21:03;;;;;;;3.72;2.97;;;20.80;44.40;;;;;;5090599;28;20036;-59
2021/04/21 09:23:41;;;;;;;4.75;2.83;;;20.80;44.30;;;;;;5091236;28;20028;-58
2021/04/21 09:26:24;;;;;;;6.55;3.92;;;20.80;44.40;;;;;;5090708;28;20028;-59
2021/04/21 09:28:55;;;;;;;4.88;3.05;;;20.80;44.30;;;;;;5090987;28;20040;-59
2021/04/21 09:31:25;;;;;;;4.15;2.58;;;20.80;44.40;;;;;;5086609;28;20032;-58
2021/04/21 09:34:08;;;;;;;3.28;2.40;;;20.80;44.30;;;;;;5091354;28;20111;-61
2021/04/21 09:36:42;;;;;;;3.65;3.00;;;20.80;44.30;;;;;;5085205;28;20035;-59
2021/04/21 09:39:24;;;;;;;4.13;2.90;;;20.80;44.30;;;;;;5080090;28;20030;-60
2021/04/21 09:41:59;;;;;;;3.83;2.90;;;20.80;44.30;;;;;;5086826;28;20028;-60
2021/04/21 09:44:28;;;;;;;4.93;3.45;;;20.80;44.30;;;;;;5090904;28;20020;-59
2021/04/21 09:46:55;;;;;;;3.95;3.03;;;20.80;44.30;;;;;;5090351;28;20024;-62
2021/04/21 09:49:35;;;;;;;4.40;3.03;;;20.80;44.20;;;;;;5090446;28;20116;-59
2021/04/21 09:52:21;;;;;;;5.00;3.35;;;20.80;44.20;;;;;;5090689;28;20496;-58
2021/04/21 09:54:47;;;;;;;5.82;3.15;;;20.80;44.20;;;;;;5077436;28;20048;-59
2021/04/21 09:57:18;;;;;;;5.00;3.42;;;20.80;44.20;;;;;;5090166;28;20039;-59
2021/04/21 10:00:07;;;;;;;4.47;3.13;;;20.80;44.10;;;;;;5091552;28;20039;-59
2021/04/21 10:02:33;;;;;;;3.20;2.80;;;20.80;44.10;;;;;;5091179;28;20028;-58
2021/04/21 10:05:23;;;;;;;5.10;3.15;;;20.80;44.20;;;;;;5090311;28;20039;-60
2021/04/21 10:08:15;;;;;;;3.20;2.60;;;20.80;44.10;;;;;;5091332;28;20047;-59
2021/04/21 10:10:45;;;;;;;3.70;2.88;;;20.80;44.20;;;;;;5090425;28;20434;-58
2021/04/21 10:13:17;;;;;;;3.85;3.17;;;20.90;44.30;;;;;;5087873;28;20036;-59
2021/04/21 10:15:43;;;;;;;4.22;2.72;;;20.80;44.10;;;;;;5088262;28;20152;-59
2021/04/21 10:18:12;;;;;;;4.05;2.78;;;20.90;44.00;;;;;;5090528;28;20034;-57
2021/04/21 10:20:38;;;;;;;6.70;2.80;;;20.90;44.20;;;;;;5093728;28;20054;-59
2021/04/21 10:23:07;;;;;;;3.63;2.67;;;20.90;44.30;;;;;;5088488;28;20107;-59
2021/04/21 10:25:36;;;;;;;8.40;2.60;;;20.90;44.40;;;;;;5093297;28;20743;-59
2021/04/21 10:28:02;;;;;;;4.82;2.58;;;20.90;44.30;;;;;;5094533;28;20044;-58
2021/04/21 10:30:29;;;;;;;5.63;3.58;;;20.90;44.30;;;;;;5094831;28;20029;-59
2021/04/21 10:32:54;;;;;;;3.47;2.53;;;20.90;44.10;;;;;;5094558;28;20032;-62
2021/04/21 10:35:20;;;;;;;2.92;2.40;;;20.90;44.20;;;;;;5093939;28;20050;-59
2021/04/21 10:37:47;;;;;;;4.35;3.28;;;20.90;44.20;;;;;;5094935;28;20024;-59
2021/04/21 10:40:23;;;;;;;5.07;3.15;;;20.90;44.20;;;;;;5087179;28;20031;-58
2021/04/21 10:43:04;;;;;;;9.90;4.35;;;20.90;44.10;;;;;;5086823;28;20111;-58
2021/04/21 10:45:31;;;;;;;6.07;2.95;;;20.90;44.10;;;;;;5094044;28;20062;-59
2021/04/21 10:47:58;;;;;;;4.70;2.55;;;20.90;44.20;;;;;;5094277;28;20027;-62
2021/04/21 10:50:36;;;;;;;5.75;2.58;;;20.90;44.40;;;;;;5094564;28;20031;-59
2021/04/21 10:53:02;;;;;;;5.40;3.40;;;20.90;44.70;;;;;;5091413;28;20437;-59
2021/04/21 10:55:28;;;;;;;5.55;2.53;;;21.00;45.50;;;;;;5089194;28;20028;-59
2021/04/21 10:58:01;;;;;;;4.38;2.92;;;20.90;45.50;;;;;;5090302;28;20469;-59
2021/04/21 11:00:28;;;;;;;5.95;2.80;;;20.90;45.70;;;;;;5077942;28;20470;-59
2021/04/21 11:03:06;;;;;;;8.25;3.03;;;20.90;46.00;;;;;;5057084;28;20059;-59
2021/04/21 11:05:41;;;;;;;4.85;3.05;;;20.90;46.00;;;;;;5091726;28;20535;-59
2021/04/21 11:08:16;;;;;;;3.10;2.80;;;20.90;46.00;;;;;;5093453;28;20035;-59
2021/04/21 11:10:54;;;;;;;5.22;2.65;;;20.90;46.00;;;;;;5093564;28;20434;-59
2021/04/21 11:13:25;;;;;;;4.88;2.58;;;20.90;46.00;;;;;;5093523;28;20439;-59
2021/04/21 11:15:54;;;;;;;5.03;2.65;;;20.90;46.00;;;;;;5093580;28;20024;-59
2021/04/21 11:18:23;;;;;;;5.20;2.58;;;20.90;46.00;;;;;;5092435;28;20069;-59
2021/04/21 11:20:50;;;;;;;5.88;3.00;;;20.90;46.10;;;;;;5093544;28;20031;-59
2021/04/21 11:26:26;;;;;;;5.57;2.63;;;20.90;46.00;;;;;;5076340;28;20043;-59
2021/04/21 11:28:57;;;;;;;4.10;2.72;;;21.00;46.00;;;;;;5094259;28;20122;-59
2021/04/21 11:31:48;;;;;;;3.65;2.72;;;21.00;46.10;;;;;;5092879;28;20042;-59
2021/04/21 11:34:20;;;;;;;4.78;2.40;;;21.00;46.10;;;;;;5092096;28;20100;-59
2021/04/21 11:36:58;;;;;;;;;;;20.90;46.00;;;;;;5094244;28;20036;-59
2021/04/21 11:42:21;;;;;;;4.22;2.80;;;21.00;46.10;;;;;;5092161;28;20032;-59
2021/04/21 11:44:47;;;;;;;3.53;2.60;;;20.90;46.10;;;;;;5093150;28;20036;-59
2021/04/21 11:47:32;;;;;;;6.53;2.72;;;21.00;46.10;;;;;;5092299;28;20020;-59
2021/04/21 11:50:01;;;;;;;3.15;2.40;;;21.00;46.00;;;;;;5093172;28;20484;-63
2021/04/21 11:52:58;;;;;;;3.47;2.40;;;21.00;45.80;;;;;;5086440;28;20073;-59
2021/04/21 11:55:31;;;;;;;3.75;2.28;;;21.00;45.80;;;;;;5086654;28;20028;-59
2021/04/21 11:58:15;;;;;;;4.03;2.60;;;20.90;45.70;;;;;;5092151;28;20032;-63
2021/04/21 12:00:50;;;;;;;4.07;2.72;;;20.90;45.70;;;;;;5087476;28;20039;-59
2021/04/21 12:03:20;;;;;;;3.45;2.53;;;20.90;45.60;;;;;;5092553;28;20126;-58
2021/04/21 12:05:49;;;;;;;2.90;2.38;;;20.90;45.60;;;;;;5092824;28;20480;-59
2021/04/21 12:08:18;;;;;;;4.03;2.55;;;21.00;45.60;;;;;;5091973;28;20019;-60
2021/04/21 12:10:47;;;;;;;3.75;2.50;;;21.00;45.50;;;;;;5092789;28;20032;-59
2021/04/21 12:13:30;;;;;;;3.13;2.83;;;20.90;45.50;;;;;;5092114;28;20028;-58
2021/04/21 12:16:12;;;;;;;2.65;2.22;;;21.00;45.50;;;;;;5092492;28;20111;-60
2021/04/21 12:18:52;;;;;;;3.63;2.53;;;20.90;45.30;;;;;;5086828;28;20570;-62
2021/04/21 12:21:18;;;;;;;3.42;2.50;;;21.00;45.40;;;;;;5091953;28;20062;-61
2021/04/21 12:23:49;;;;;;;3.78;2.60;;;20.90;45.30;;;;;;5092652;28;20063;-61
2021/04/21 12:26:37;;;;;;;4.10;3.03;;;21.00;45.30;;;;;;5091207;28;20511;-59
2021/04/21 12:29:10;;;;;;;2.90;2.38;;;21.00;45.20;;;;;;5092132;28;20050;-63
2021/04/21 12:31:36;;;;;;;5.70;3.60;;;21.00;45.20;;;;;;5090992;28;20123;-58
2021/04/21 12:34:05;;;;;;;4.32;2.10;;;21.00;45.10;;;;;;5091919;28;20209;-63
2021/04/21 12:36:35;;;;;;;4.72;2.38;;;21.00;45.10;;;;;;5083878;28;20035;-54
2021/04/21 12:39:08;;;;;;;5.10;2.40;;;21.00;45.10;;;;;;5092382;28;20019;-59
2021/04/21 12:41:44;;;;;;;2.95;2.33;;;21.00;45.10;;;;;;5092197;28;20028;-59
2021/04/21 12:44:17;;;;;;;2.83;2.30;;;21.00;45.00;;;;;;5089733;28;20035;-59
2021/04/21 12:46:43;;;;;;;2.78;2.17;;;21.00;45.00;;;;;;5091768;28;20042;-59
2021/04/21 12:49:09;;;;;;;2.63;2.30;;;21.00;45.00;;;;;;5091510;28;20465;-59
2021/04/21 12:51:35;;;;;;;3.35;2.40;;;20.90;44.90;;;;;;5091915;28;20043;-60
2021/04/21 12:54:04;;;;;;;2.50;2.13;;;20.90;44.80;;;;;;5091210;28;20016;-62
2021/04/21 12:56:40;;;;;;;2.80;2.42;;;20.90;44.80;;;;;;5091551;28;20028;-59
2021/04/21 12:59:17;;;;;;;3.30;2.08;;;21.00;44.80;;;;;;5091083;28;20035;-60
2021/04/21 13:01:43;;;;;;;2.92;2.20;;;21.00;44.80;;;;;;5090928;28;20056;-58
2021/04/21 13:04:12;;;;;;;3.80;2.30;;;20.90;44.80;;;;;;5091286;28;20472;-59
2021/04/21 13:06:42;;;;;;;3.33;2.40;;;21.00;44.80;;;;;;5092418;28;20111;-59
2021/04/21 13:09:19;;;;;;;2.63;2.00;;;21.00;44.80;;;;;;5091264;28;20489;-59
2021/04/21 13:11:58;;;;;;;3.25;2.50;;;20.90;44.70;;;;;;5091631;28;20493;-59
2021/04/21 13:14:43;;;;;;;3.08;2.13;;;21.00;44.70;;;;;;5085983;28;20024;-59
2021/04/21 13:17:10;;;;;;;2.58;1.95;;;20.90;44.70;;;;;;5091200;28;20426;-59
2021/04/21 13:19:38;;;;;;;3.88;2.40;;;20.90;44.70;;;;;;5091370;28;20373;-58
2021/04/21 13:22:12;;;;;;;2.42;2.20;;;20.90;44.70;;;;;;5090690;28;20031;-62
2021/04/21 13:24:40;;;;;;;2.63;2.08;;;20.90;44.70;;;;;;5091471;28;20032;-59
2021/04/21 13:27:21;;;;;;;2.72;2.38;;;20.90;44.70;;;;;;5089856;28;20035;-60